createdAt,value
2023-03-02T00:03:39.322Z,94661.72
2023-03-02T00:08:40.633Z,94656.03
2023-03-02T00:13:41.940Z,94655.97
2023-03-02T00:18:43.245Z,94649.19
2023-03-02T00:23:44.610Z,94638.47
2023-03-02T00:28:45.898Z,94637.00
2023-03-02T00:33:47.171Z,94640.13
2023-03-02T00:38:48.463Z,94627.84
2023-03-02T00:43:49.760Z,94624.50
2023-03-02T00:48:51.023Z,94619.13
2023-03-02T00:53:52.409Z,94617.66
2023-03-02T00:58:53.716Z,94604.72
2023-03-02T01:03:55.008Z,94605.81
2023-03-02T01:08:56.346Z,94601.69
2023-03-02T01:13:57.657Z,94588.75
2023-03-02T01:18:58.919Z,94580.31
2023-03-02T01:24:00.233Z,94588.78
2023-03-02T01:29:01.538Z,94599.84
2023-03-02T01:34:02.838Z,94589.19
2023-03-02T01:39:04.174Z,94571.63
2023-03-02T01:44:05.479Z,94583.09
2023-03-02T01:49:06.743Z,94583.50
2023-03-02T01:54:07.987Z,94576.28
2023-03-02T01:59:09.298Z,94568.19
2023-03-02T02:04:10.638Z,94559.81
2023-03-02T02:09:12.045Z,94567.75
2023-03-02T02:14:13.317Z,94567.75
2023-03-02T02:19:14.589Z,94562.41
2023-03-02T02:24:15.853Z,94575.28
2023-03-02T02:29:17.138Z,94575.00
2023-03-02T02:34:18.436Z,94572.19
2023-03-02T02:39:19.696Z,94572.59
2023-03-02T02:44:20.960Z,94567.66
2023-03-02T02:49:22.243Z,94565.94
2023-03-02T02:54:23.495Z,94546.16
2023-03-02T02:59:24.765Z,94561.72
2023-03-02T03:04:26.121Z,94559.81
2023-03-02T03:09:27.457Z,94555.28
2023-03-02T03:14:28.737Z,94553.47
2023-03-02T03:19:29.987Z,94556.72
2023-03-02T03:24:31.307Z,94552.38
2023-03-02T03:29:32.532Z,94552.38
2023-03-02T03:34:33.819Z,94558.59
2023-03-02T03:39:35.103Z,94554.47
2023-03-02T03:44:36.372Z,94550.47
2023-03-02T03:49:37.620Z,94550.69
2023-03-02T03:54:38.982Z,94551.47
2023-03-02T03:59:40.223Z,94548.50
2023-03-02T04:04:41.464Z,94556.03
2023-03-02T04:09:43.085Z,94560.44
2023-03-02T04:14:44.342Z,94553.13
2023-03-02T04:19:45.593Z,94554.34
2023-03-02T04:24:46.856Z,94548.66
2023-03-02T04:29:55.615Z,94551.22
2023-03-02T04:34:56.900Z,94551.38
2023-03-02T04:39:58.293Z,94563.16
2023-03-02T04:44:59.555Z,94572.00
2023-03-02T04:50:00.847Z,94569.38
2023-03-02T04:55:02.110Z,94568.94
2023-03-02T05:00:03.380Z,94578.47
2023-03-02T05:05:04.686Z,94569.94
2023-03-02T05:10:06.007Z,94562.28
2023-03-02T05:15:07.312Z,94576.00
2023-03-02T05:20:08.624Z,94579.88
2023-03-02T05:25:09.935Z,94582.19
2023-03-02T05:30:11.245Z,94587.25
2023-03-02T05:35:14.146Z,94586.09
2023-03-02T05:40:15.475Z,94589.53
2023-03-02T05:45:16.731Z,94583.88
2023-03-02T05:50:18.000Z,94583.97
2023-03-02T05:55:19.303Z,94587.03
2023-03-02T06:00:20.615Z,94596.63
2023-03-02T06:05:21.923Z,94590.50
2023-03-02T06:10:23.165Z,94591.22
2023-03-02T06:15:24.425Z,94601.56
2023-03-02T06:20:25.666Z,94598.16
2023-03-02T06:25:26.974Z,94618.38
2023-03-02T06:30:28.295Z,94613.38
2023-03-02T06:35:29.649Z,94612.25
2023-03-02T06:40:31.017Z,94613.38
2023-03-02T06:45:32.345Z,94603.09
2023-03-02T06:50:33.688Z,94604.25
2023-03-02T06:55:35.005Z,94605.34
2023-03-02T07:00:36.320Z,94608.03
2023-03-02T07:05:37.567Z,94603.84
2023-03-02T07:10:38.869Z,94601.16
2023-03-02T07:15:40.136Z,94604.59
2023-03-02T07:20:41.425Z,94615.28
2023-03-02T07:25:42.651Z,94606.50
2023-03-02T07:30:44.029Z,94607.63
2023-03-02T07:35:45.403Z,94614.53
2023-03-02T07:40:46.761Z,94611.84
2023-03-02T07:45:48.132Z,94617.19
2023-03-02T07:50:49.413Z,94611.09
2023-03-02T07:55:50.677Z,94624.47
2023-03-02T08:00:51.952Z,94616.44
2023-03-02T08:05:53.233Z,94607.63
2023-03-02T08:10:54.506Z,94610.28
2023-03-02T08:15:55.777Z,94605.75
2023-03-02T08:20:57.052Z,94596.16
2023-03-02T08:25:58.345Z,94603.06
2023-03-02T08:30:59.619Z,94594.66
2023-03-02T08:36:01.016Z,94596.63
2023-03-02T08:41:02.328Z,94597.03
2023-03-02T08:46:03.616Z,94597.41
2023-03-02T08:51:04.870Z,94590.13
2023-03-02T08:56:06.103Z,94592.81
2023-03-02T09:01:07.471Z,94595.13
2023-03-02T09:06:08.777Z,94585.97
2023-03-02T09:11:10.050Z,94582.94
2023-03-02T09:16:11.344Z,94590.19
2023-03-02T09:21:12.646Z,94591.75
2023-03-02T09:26:13.936Z,94574.53
2023-03-02T09:31:15.195Z,94577.22
2023-03-02T09:36:16.443Z,94577.22
2023-03-02T09:41:17.737Z,94565.75
2023-03-02T09:46:19.040Z,94567.28
2023-03-02T09:51:20.362Z,94571.09
2023-03-02T09:56:21.634Z,94571.88
2023-03-02T10:01:22.946Z,94578.78
2023-03-02T10:06:24.223Z,94579.53
2023-03-02T10:11:25.545Z,94574.53
2023-03-02T10:16:26.893Z,94584.47
2023-03-02T10:21:28.229Z,94582.94
2023-03-02T10:26:29.467Z,94587.50
2023-03-02T10:31:30.764Z,94587.50
2023-03-02T10:36:32.081Z,94577.97
2023-03-02T10:41:33.334Z,94571.81
2023-03-02T10:46:34.987Z,94571.81
2023-03-02T10:51:36.744Z,94564.59
2023-03-02T10:56:38.068Z,94568.03
2023-03-02T11:01:39.407Z,94548.53
2023-03-02T11:06:40.769Z,94553.09
2023-03-02T11:11:42.058Z,94543.59
2023-03-02T11:16:43.404Z,94529.44
2023-03-02T11:21:44.765Z,94528.66
2023-03-02T11:26:46.073Z,94527.53
2023-03-02T11:31:47.419Z,94532.91
2023-03-02T11:36:48.717Z,94523.31
2023-03-02T11:41:50.009Z,94518.72
2023-03-02T11:46:51.364Z,94517.22
2023-03-02T11:51:58.118Z,94523.31
2023-03-02T11:56:59.989Z,94520.66
2023-03-02T12:02:01.249Z,94519.88
2023-03-02T12:07:02.749Z,94527.13
2023-03-02T12:12:05.449Z,94526.00
2023-03-02T12:17:06.774Z,94522.19
2023-03-02T12:22:08.080Z,94507.69
2023-03-02T12:27:09.399Z,94501.97
2023-03-02T12:32:10.824Z,94509.22
2023-03-02T12:37:12.143Z,94504.66
2023-03-02T12:42:13.475Z,94497.38
2023-03-02T12:47:15.562Z,94504.66
2023-03-02T12:52:17.276Z,94500.06
2023-03-02T12:57:18.684Z,94492.44
2023-03-02T13:02:20.018Z,94489.03
2023-03-02T13:07:21.326Z,94476.84
2023-03-02T13:12:22.598Z,94470.31
2023-03-02T13:17:23.906Z,94472.22
2023-03-02T13:22:28.106Z,94464.56
2023-03-02T13:27:29.544Z,94451.91
2023-03-02T13:32:30.934Z,94448.84
2023-03-02T13:37:32.222Z,94446.50
2023-03-02T13:42:33.523Z,94444.22
2023-03-02T13:47:34.753Z,94448.44
2023-03-02T13:52:36.045Z,94434.28
2023-03-02T13:57:37.386Z,94437.38
2023-03-02T14:02:38.651Z,94434.28
2023-03-02T14:07:39.957Z,94427.38
2023-03-02T14:12:41.201Z,94430.44
2023-03-02T14:17:42.463Z,94424.31
2023-03-02T14:22:43.719Z,94426.22
2023-03-02T14:27:44.991Z,94430.81
2023-03-02T14:32:46.273Z,94422.03
2023-03-02T14:37:47.543Z,94422.03
2023-03-02T14:42:48.784Z,94424.69
2023-03-02T14:47:50.086Z,94431.94
2023-03-02T14:52:51.348Z,94426.97
2023-03-02T14:57:52.661Z,94431.94
2023-03-02T15:02:54.213Z,94440.75
2023-03-02T15:07:58.237Z,94428.13
2023-03-02T15:12:59.976Z,94435.41
2023-03-02T15:18:01.289Z,94433.47
2023-03-02T15:23:02.610Z,94432.34
2023-03-02T15:28:03.876Z,94426.97
2023-03-02T15:33:05.138Z,94435.81
2023-03-02T15:38:06.450Z,94435.00
2023-03-02T15:43:07.737Z,94431.56
2023-03-02T15:48:08.970Z,94443.03
2023-03-02T15:53:10.294Z,94441.16
2023-03-02T15:58:11.610Z,94444.19
2023-03-02T16:03:12.897Z,94449.53
2023-03-02T16:08:14.200Z,94456.41
2023-03-02T16:13:15.516Z,94462.91
2023-03-02T16:18:16.800Z,94457.56
2023-03-02T16:23:18.102Z,94457.91
2023-03-02T16:28:19.418Z,94459.47
2023-03-02T16:33:20.749Z,94457.91
2023-03-02T16:38:22.032Z,94465.56
2023-03-02T16:43:23.303Z,94467.50
2023-03-02T16:48:24.564Z,94464.81
2023-03-02T16:53:25.814Z,94465.22
2023-03-02T16:58:27.122Z,94467.09
2023-03-02T17:03:28.355Z,94472.09
2023-03-02T17:08:29.620Z,94470.97
2023-03-02T17:13:30.885Z,94477.09
2023-03-02T17:18:32.223Z,94484.34
2023-03-02T17:23:33.503Z,94489.31
2023-03-02T17:28:34.806Z,94499.66
2023-03-02T17:33:36.079Z,94495.81
2023-03-02T17:38:37.402Z,94501.16
2023-03-02T17:43:38.721Z,94497.38
2023-03-02T17:48:40.023Z,94489.44
2023-03-02T17:53:41.349Z,94491.75
2023-03-02T17:58:45.317Z,94487.59
2023-03-02T18:03:46.947Z,94490.31
2023-03-02T18:08:48.287Z,94480.78
2023-03-02T18:13:49.589Z,94478.50
2023-03-02T18:18:53.525Z,94479.63
2023-03-02T18:23:55.148Z,94470.53
2023-03-02T18:28:56.443Z,94472.81
2023-03-02T18:33:57.761Z,94462.50
2023-03-02T18:38:59.020Z,94462.84
2023-03-02T18:44:00.318Z,94460.56
2023-03-02T18:49:01.623Z,94467.13
2023-03-02T18:54:03.119Z,94472.50
2023-03-02T18:59:04.389Z,94483.16
2023-03-02T19:04:05.661Z,94491.13
2023-03-02T19:09:06.988Z,94491.94
2023-03-02T19:14:08.282Z,94491.94
2023-03-02T19:19:09.551Z,94485.38
2023-03-02T19:24:10.819Z,94486.94
2023-03-02T19:29:12.086Z,94483.84
2023-03-02T19:34:13.402Z,94492.66
2023-03-02T19:39:14.723Z,94495.69
2023-03-02T19:44:16.397Z,94504.84
2023-03-02T19:49:17.707Z,94508.66
2023-03-02T19:54:18.988Z,94500.63
2023-03-02T19:59:20.263Z,94503.69
2023-03-02T20:04:21.542Z,94509.03
2023-03-02T20:09:22.808Z,94509.03
2023-03-02T20:14:33.495Z,94501.38
2023-03-02T20:19:35.458Z,94503.69
2023-03-02T20:24:36.782Z,94500.63
2023-03-02T20:29:38.110Z,94500.63
2023-03-02T20:34:39.405Z,94493.78
2023-03-02T20:39:40.671Z,94490.72
2023-03-02T20:44:41.969Z,94490.72
2023-03-02T20:49:43.312Z,94486.84
2023-03-02T20:54:44.642Z,94481.09
2023-03-02T20:59:45.941Z,94479.91
2023-03-02T21:04:47.292Z,94479.50
2023-03-02T21:09:48.658Z,94475.66
2023-03-02T21:14:49.971Z,94475.28
2023-03-02T21:19:51.303Z,94469.50
2023-03-02T21:24:52.626Z,94467.97
2023-03-02T21:29:53.980Z,94471.78
2023-03-02T21:34:55.339Z,94466.78
2023-03-02T21:39:56.630Z,94457.22
2023-03-02T21:44:58.129Z,94450.69
2023-03-02T21:49:59.436Z,94449.94
2023-03-02T21:55:00.736Z,94447.25
2023-03-02T22:00:02.037Z,94442.69
2023-03-02T22:05:03.332Z,94438.09
2023-03-02T22:10:04.708Z,94434.66
2023-03-02T22:15:06.047Z,94432.75
2023-03-02T22:20:07.318Z,94426.25
2023-03-02T22:25:08.621Z,94430.06
2023-03-02T22:30:09.931Z,94415.56
2023-03-02T22:35:11.212Z,94416.34
2023-03-02T22:40:12.482Z,94414.41
2023-03-02T22:45:13.765Z,94407.19
2023-03-02T22:50:15.708Z,94406.03
2023-03-02T22:55:17.014Z,94406.03
2023-03-02T23:00:18.304Z,94395.34
2023-03-02T23:05:19.607Z,94396.09
2023-03-02T23:10:20.925Z,94383.53
2023-03-02T23:15:22.233Z,94380.84
2023-03-02T23:20:23.504Z,94389.63
2023-03-02T23:25:24.748Z,94387.72
2023-03-02T23:30:25.983Z,94378.94
2023-03-02T23:35:27.324Z,94372.44
2023-03-02T23:40:28.567Z,94373.22
2023-03-02T23:45:29.989Z,94372.44
2023-03-02T23:50:31.328Z,94367.88
2023-03-02T23:55:32.582Z,94360.59
